createdAt,value
2022-12-12T00:01:40.957Z,-1.20
2022-12-12T00:04:08.733Z,-1.20
2022-12-12T00:06:35.873Z,-1.20
2022-12-12T00:09:06.118Z,-1.20
2022-12-12T00:11:33.398Z,-1.30
2022-12-12T00:14:00.768Z,-1.20
2022-12-12T00:16:27.901Z,-1.20
2022-12-12T00:18:55.457Z,-1.10
2022-12-12T00:21:25.554Z,-1.10
2022-12-12T00:23:55.614Z,-1.10
2022-12-12T00:26:34.393Z,-1.20
2022-12-12T00:29:02.761Z,-1.20
2022-12-12T00:31:30.714Z,-1.20
2022-12-12T00:33:58.303Z,-1.20
2022-12-12T00:36:27.773Z,-1.20
2022-12-12T00:38:58.791Z,-1.20
2022-12-12T00:41:30.641Z,-1.20
2022-12-12T00:43:58.138Z,-1.20
2022-12-12T00:46:26.360Z,-1.20
2022-12-12T00:48:56.252Z,-1.20
2022-12-12T00:51:27.499Z,-1.20
2022-12-12T00:53:55.193Z,-1.20
2022-12-12T00:56:23.579Z,-1.30
2022-12-12T00:58:52.229Z,-1.30
2022-12-12T01:01:25.562Z,-1.20
2022-12-12T01:03:56.186Z,-1.20
2022-12-12T01:06:23.821Z,-1.20
2022-12-12T01:08:51.436Z,-1.20
2022-12-12T01:11:19.687Z,-1.20
2022-12-12T01:13:59.344Z,-1.20
2022-12-12T01:16:29.182Z,-1.10
2022-12-12T01:19:02.101Z,-1.10
2022-12-12T01:21:29.593Z,-1.10
2022-12-12T01:23:59.389Z,-1.10
2022-12-12T01:26:26.951Z,-1.10
2022-12-12T01:28:54.513Z,-1.10
2022-12-12T01:31:21.821Z,-1.20
2022-12-12T01:33:49.430Z,-1.20
2022-12-12T01:36:18.952Z,-1.20
2022-12-12T01:38:54.225Z,-1.20
2022-12-12T01:41:22.384Z,-1.20
2022-12-12T01:43:50.317Z,-1.10
2022-12-12T01:46:36.227Z,-1.10
2022-12-12T01:49:22.723Z,-1.10
2022-12-12T01:51:57.119Z,-1.10
2022-12-12T01:54:32.488Z,-1.20
2022-12-12T01:57:05.073Z,-1.20
2022-12-12T01:59:36.742Z,-1.10
2022-12-12T02:02:07.411Z,-1.10
2022-12-12T02:04:35.241Z,-1.10
2022-12-12T02:07:03.070Z,-1.10
2022-12-12T02:09:31.277Z,-1.20
2022-12-12T02:11:58.788Z,-1.10
2022-12-12T02:14:33.462Z,-1.20
2022-12-12T02:17:21.873Z,-1.20
2022-12-12T02:20:10.916Z,-1.20
2022-12-12T02:22:58.981Z,-1.20
2022-12-12T02:25:49.641Z,-1.10
2022-12-12T02:28:53.845Z,-1.20
2022-12-12T02:31:54.241Z,-1.20
2022-12-12T02:34:51.785Z,-1.20
2022-12-12T02:37:28.065Z,-1.20
2022-12-12T02:40:19.363Z,-1.20
2022-12-12T02:43:02.007Z,-1.20
2022-12-12T02:45:43.770Z,-1.20
2022-12-12T02:48:26.436Z,-1.10
2022-12-12T02:50:58.549Z,-1.20
2022-12-12T02:53:25.909Z,-1.20
2022-12-12T02:56:06.667Z,-1.20
2022-12-12T02:58:37.657Z,-1.20
2022-12-12T03:04:07.204Z,-1.20
2022-12-12T03:06:49.282Z,-1.10
2022-12-12T03:09:31.551Z,-1.10
2022-12-12T03:12:01.467Z,-1.10
2022-12-12T03:14:35.313Z,-1.10
2022-12-12T03:17:13.908Z,-1.10
2022-12-12T03:19:52.951Z,-1.10
2022-12-12T03:22:31.507Z,-1.10
2022-12-12T03:25:26.508Z,-1.00
2022-12-12T03:27:56.519Z,-1.00
2022-12-12T03:30:24.215Z,-1.00
2022-12-12T03:33:11.022Z,-1.00
2022-12-12T03:35:48.096Z,-0.90
2022-12-12T03:38:23.117Z,-0.90
2022-12-12T03:40:54.777Z,-1.00
2022-12-12T03:43:33.693Z,-0.90
2022-12-12T03:46:12.981Z,-1.00
2022-12-12T03:49:26.669Z,-1.00
2022-12-12T03:52:11.521Z,-1.00
2022-12-12T03:54:53.886Z,-1.00
2022-12-12T03:57:45.741Z,-1.10
2022-12-12T04:00:18.943Z,-1.10
2022-12-12T04:02:55.464Z,-1.10
2022-12-12T04:05:35.000Z,-1.00
2022-12-12T04:08:12.969Z,-1.00
2022-12-12T04:10:47.225Z,-1.00
2022-12-12T04:13:32.640Z,-1.00
2022-12-12T04:16:10.122Z,-1.00
2022-12-12T04:18:52.437Z,-1.00
2022-12-12T04:21:28.431Z,-1.10
2022-12-12T04:24:25.305Z,-1.00
2022-12-12T04:26:52.349Z,-1.00
2022-12-12T04:29:20.018Z,-0.90
2022-12-12T04:32:08.485Z,-1.00
2022-12-12T04:35:04.162Z,-0.90
2022-12-12T04:37:44.841Z,-1.00
2022-12-12T04:40:22.267Z,-1.00
2022-12-12T04:43:06.923Z,-1.00
2022-12-12T04:45:46.525Z,-1.00
2022-12-12T04:48:20.570Z,-1.00
2022-12-12T04:50:51.371Z,-1.00
2022-12-12T04:53:27.192Z,-1.00
2022-12-12T04:55:57.378Z,-1.00
2022-12-12T04:58:24.869Z,-0.90
2022-12-12T05:01:11.263Z,-0.90
2022-12-12T05:04:05.500Z,-1.00
2022-12-12T05:06:50.002Z,-0.90
2022-12-12T05:09:17.662Z,-1.00
2022-12-12T05:11:45.429Z,-1.00
2022-12-12T05:14:15.884Z,-1.00
2022-12-12T05:16:49.786Z,-1.00
2022-12-12T05:19:16.960Z,-1.00
2022-12-12T05:21:44.578Z,-1.00
2022-12-12T05:24:11.697Z,-1.00
2022-12-12T05:26:39.070Z,-1.00
2022-12-12T05:29:07.738Z,-1.00
2022-12-12T05:31:35.951Z,-1.00
2022-12-12T05:34:04.219Z,-1.00
2022-12-12T05:36:31.862Z,-1.00
2022-12-12T05:38:58.923Z,-1.00
2022-12-12T05:41:26.394Z,-1.00
2022-12-12T05:43:53.854Z,-1.00
2022-12-12T05:46:21.273Z,-1.00
2022-12-12T05:48:50.925Z,-1.00
2022-12-12T05:51:19.214Z,-0.90
2022-12-12T05:53:48.732Z,-0.90
2022-12-12T05:56:16.088Z,-0.90
2022-12-12T05:58:43.713Z,-0.90
2022-12-12T06:01:11.297Z,-0.90
2022-12-12T06:03:40.848Z,-1.00
2022-12-12T06:06:08.500Z,-0.90
2022-12-12T06:08:35.805Z,-0.90
2022-12-12T06:11:07.733Z,-0.90
2022-12-12T06:13:37.441Z,-0.90
2022-12-12T06:16:09.817Z,-0.90
2022-12-12T06:18:37.405Z,-1.00
2022-12-12T06:21:07.204Z,-1.00
2022-12-12T06:23:39.034Z,-1.00
2022-12-12T06:26:07.771Z,-1.00
2022-12-12T06:28:35.027Z,-1.00
2022-12-12T06:31:04.545Z,-1.00
2022-12-12T06:33:34.443Z,-1.00
2022-12-12T06:36:10.094Z,-1.00
2022-12-12T06:38:38.479Z,-1.00
2022-12-12T06:41:11.317Z,-0.90
2022-12-12T06:43:41.214Z,-0.80
2022-12-12T06:46:14.312Z,-0.80
2022-12-12T06:48:41.455Z,-0.80
2022-12-12T06:51:15.401Z,-0.80
2022-12-12T06:53:42.561Z,-0.80
2022-12-12T06:56:13.819Z,-0.80
2022-12-12T06:58:41.079Z,-0.80
2022-12-12T07:01:08.862Z,-0.80
2022-12-12T07:03:38.972Z,-0.70
2022-12-12T07:06:07.464Z,-0.70
2022-12-12T07:08:35.519Z,-0.70
2022-12-12T07:11:08.327Z,-0.70
2022-12-12T07:13:35.644Z,-0.70
2022-12-12T07:16:03.061Z,-0.70
2022-12-12T07:18:30.337Z,-0.70
2022-12-12T07:20:58.044Z,-0.60
2022-12-12T07:23:27.618Z,-0.50
2022-12-12T07:25:57.543Z,-0.50
2022-12-12T07:28:24.974Z,-0.50
2022-12-12T07:30:52.313Z,-0.50
2022-12-12T07:33:19.480Z,-0.60
2022-12-12T07:35:47.403Z,-0.50
2022-12-12T07:38:14.448Z,-0.50
2022-12-12T07:40:41.892Z,-0.40
2022-12-12T07:43:09.462Z,-0.40
2022-12-12T07:45:39.232Z,-0.30
2022-12-12T07:48:06.412Z,-0.20
2022-12-12T07:50:34.080Z,-0.20
2022-12-12T07:53:01.078Z,-0.10
2022-12-12T07:55:28.556Z,-0.10
2022-12-12T07:57:58.635Z,0.00
2022-12-12T08:00:26.623Z,0.00
2022-12-12T08:02:53.871Z,0.00
2022-12-12T08:05:21.723Z,0.10
2022-12-12T08:07:50.988Z,0.10
2022-12-12T08:10:18.424Z,0.10
2022-12-12T08:12:45.787Z,0.20
2022-12-12T08:15:19.704Z,0.20
2022-12-12T08:17:51.665Z,0.20
2022-12-12T08:20:19.037Z,0.30
2022-12-12T08:22:49.041Z,0.40
2022-12-12T08:25:16.551Z,0.40
2022-12-12T08:27:43.646Z,0.40
2022-12-12T08:30:11.480Z,0.40
2022-12-12T08:32:38.751Z,0.40
2022-12-12T08:35:06.868Z,0.50
2022-12-12T08:37:34.299Z,0.50
2022-12-12T08:40:01.886Z,0.60
2022-12-12T08:42:28.960Z,0.70
2022-12-12T08:44:56.418Z,0.80
2022-12-12T08:47:23.703Z,0.90
2022-12-12T08:49:51.028Z,1.00
2022-12-12T08:52:18.403Z,1.10
2022-12-12T08:54:45.952Z,1.20
2022-12-12T08:57:12.958Z,1.20
2022-12-12T08:59:40.423Z,1.20
2022-12-12T09:02:09.135Z,1.10
2022-12-12T09:04:36.507Z,1.10
2022-12-12T09:07:08.480Z,1.10
2022-12-12T09:09:36.281Z,1.30
2022-12-12T09:12:03.859Z,1.40
2022-12-12T09:14:31.192Z,1.50
2022-12-12T09:16:58.372Z,1.60
2022-12-12T09:19:25.871Z,1.70
2022-12-12T09:21:53.492Z,1.60
2022-12-12T09:24:20.974Z,1.60
2022-12-12T09:26:50.386Z,1.50
2022-12-12T09:29:20.375Z,1.50
2022-12-12T09:31:47.730Z,1.50
2022-12-12T09:34:15.177Z,1.50
2022-12-12T09:36:42.196Z,1.60
2022-12-12T09:39:12.135Z,1.70
2022-12-12T09:41:39.316Z,1.70
2022-12-12T09:44:09.771Z,1.80
2022-12-12T09:46:49.894Z,1.80
2022-12-12T09:49:43.787Z,1.90
2022-12-12T09:52:18.033Z,2.00
2022-12-12T09:54:45.562Z,2.00
2022-12-12T09:57:27.993Z,2.00
2022-12-12T09:59:55.237Z,2.00
2022-12-12T10:03:13.381Z,2.10
2022-12-12T10:05:43.722Z,2.10
2022-12-12T10:08:20.015Z,2.10
2022-12-12T10:11:03.220Z,2.00
2022-12-12T10:13:34.350Z,1.90
2022-12-12T10:16:10.722Z,1.90
2022-12-12T10:18:45.075Z,1.90
2022-12-12T10:21:21.858Z,1.90
2022-12-12T10:23:56.491Z,1.80
2022-12-12T10:26:31.344Z,1.70
2022-12-12T10:29:28.013Z,1.60
2022-12-12T10:32:04.590Z,1.60
2022-12-12T10:34:55.222Z,1.60
2022-12-12T10:37:31.825Z,1.60
2022-12-12T10:40:05.420Z,1.60
2022-12-12T10:42:44.604Z,1.50
2022-12-12T10:45:17.673Z,1.40
2022-12-12T10:47:46.508Z,1.30
2022-12-12T10:50:22.025Z,1.40
2022-12-12T10:52:49.550Z,1.40
2022-12-12T10:55:22.859Z,1.30
2022-12-12T10:58:03.450Z,1.30
2022-12-12T11:00:34.286Z,1.30
2022-12-12T11:03:30.865Z,1.30
2022-12-12T11:06:04.863Z,1.20
2022-12-12T11:08:35.391Z,1.20
2022-12-12T11:11:05.624Z,1.20
2022-12-12T11:13:52.771Z,1.10
2022-12-12T11:16:29.556Z,1.10
2022-12-12T11:19:02.329Z,1.10
2022-12-12T11:21:34.868Z,1.00
2022-12-12T11:24:13.320Z,1.00
2022-12-12T11:26:56.233Z,1.00
2022-12-12T11:29:43.858Z,1.00
2022-12-12T11:32:23.836Z,1.00
2022-12-12T11:34:54.413Z,0.90
2022-12-12T11:37:24.577Z,0.80
2022-12-12T11:39:57.014Z,0.80
2022-12-12T11:42:30.320Z,0.70
2022-12-12T11:45:09.944Z,0.70
2022-12-12T11:47:43.179Z,0.70
2022-12-12T11:50:23.113Z,0.70
2022-12-12T11:52:53.653Z,0.70
2022-12-12T11:55:29.791Z,0.70
2022-12-12T11:58:12.021Z,0.80
2022-12-12T12:01:06.005Z,0.80
2022-12-12T12:03:43.201Z,0.80
2022-12-12T12:06:13.847Z,0.90
2022-12-12T12:09:02.290Z,0.90
2022-12-12T12:11:38.632Z,1.00
2022-12-12T12:14:29.396Z,1.00
2022-12-12T12:17:20.209Z,1.00
2022-12-12T12:19:59.264Z,1.10
2022-12-12T12:22:51.998Z,1.20
2022-12-12T12:25:37.932Z,1.20
2022-12-12T12:28:42.545Z,1.30
2022-12-12T12:31:29.515Z,1.30
2022-12-12T12:33:59.947Z,1.30
2022-12-12T12:36:43.680Z,1.40
2022-12-12T12:39:10.952Z,1.40
2022-12-12T12:41:44.248Z,1.40
2022-12-12T12:44:14.552Z,1.30
2022-12-12T12:47:03.309Z,1.30
2022-12-12T12:49:40.800Z,1.30
2022-12-12T12:52:30.695Z,1.40
2022-12-12T12:54:59.334Z,1.30
2022-12-12T12:57:34.295Z,1.30
2022-12-12T13:00:13.233Z,1.30
2022-12-12T13:02:49.289Z,1.30
2022-12-12T13:05:32.260Z,1.30
2022-12-12T13:08:36.879Z,1.20
2022-12-12T13:11:15.557Z,1.20
2022-12-12T13:13:48.562Z,1.20
2022-12-12T13:16:26.611Z,1.20
2022-12-12T13:19:05.292Z,1.20
2022-12-12T13:21:41.148Z,1.10
2022-12-12T13:24:21.607Z,1.10
2022-12-12T13:26:55.150Z,1.00
2022-12-12T13:29:47.031Z,1.00
2022-12-12T13:32:29.461Z,1.00
2022-12-12T13:35:25.131Z,1.00
2022-12-12T13:37:56.206Z,1.00
2022-12-12T13:40:30.520Z,1.00
2022-12-12T13:43:09.643Z,1.00
2022-12-12T13:45:40.489Z,1.00
2022-12-12T13:48:26.316Z,0.90
2022-12-12T13:51:27.629Z,0.80
2022-12-12T13:54:12.261Z,0.80
2022-12-12T13:57:00.384Z,0.70
2022-12-12T13:59:30.968Z,0.70
2022-12-12T14:02:02.858Z,0.70
2022-12-12T14:04:33.527Z,0.70
2022-12-12T14:07:16.327Z,0.70
2022-12-12T14:09:49.468Z,0.70
2022-12-12T14:12:30.836Z,0.70
2022-12-12T14:15:29.811Z,0.70
2022-12-12T14:18:02.057Z,0.70
2022-12-12T14:20:29.354Z,0.60
2022-12-12T14:22:59.484Z,0.60
2022-12-12T14:25:34.665Z,0.60
2022-12-12T14:28:04.526Z,0.60
2022-12-12T14:30:45.099Z,0.60
2022-12-12T14:33:41.404Z,0.50
2022-12-12T14:36:46.653Z,0.50
2022-12-12T14:39:28.897Z,0.50
2022-12-12T14:41:57.346Z,0.40
2022-12-12T14:44:37.164Z,0.40
2022-12-12T14:47:07.643Z,0.40
2022-12-12T14:49:34.819Z,0.40
2022-12-12T14:52:02.375Z,0.40
2022-12-12T14:54:31.165Z,0.40
2022-12-12T14:56:59.316Z,0.40
2022-12-12T14:59:33.265Z,0.40
2022-12-12T15:02:22.537Z,0.40
2022-12-12T15:05:00.855Z,0.40
2022-12-12T15:07:34.787Z,0.40
2022-12-12T15:10:25.692Z,0.40
2022-12-12T15:12:53.197Z,0.30
2022-12-12T15:15:25.946Z,0.40
2022-12-12T15:17:55.394Z,0.40
2022-12-12T15:20:28.526Z,0.50
2022-12-12T15:22:59.114Z,0.70
2022-12-12T15:25:33.430Z,0.70
2022-12-12T15:28:01.846Z,0.80
2022-12-12T15:30:44.526Z,0.70
2022-12-12T15:33:20.175Z,0.70
2022-12-12T15:35:50.081Z,0.70
2022-12-12T15:38:17.768Z,0.60
2022-12-12T15:40:52.655Z,0.60
2022-12-12T15:43:23.928Z,0.70
2022-12-12T15:45:55.855Z,0.70
2022-12-12T15:48:24.099Z,0.60
2022-12-12T15:50:53.780Z,0.60
2022-12-12T15:53:34.452Z,0.60
2022-12-12T15:56:19.811Z,0.60
2022-12-12T15:59:04.107Z,0.50
2022-12-12T16:01:31.736Z,0.40
2022-12-12T16:04:01.421Z,0.40
2022-12-12T16:06:34.053Z,0.40
2022-12-12T16:09:15.945Z,0.40
2022-12-12T16:11:59.083Z,0.40
2022-12-12T16:14:43.218Z,0.40
2022-12-12T16:17:16.220Z,0.40
2022-12-12T16:19:55.350Z,0.40
2022-12-12T16:22:31.002Z,0.30
2022-12-12T16:25:19.299Z,0.30
2022-12-12T16:27:49.756Z,0.30
2022-12-12T16:30:17.700Z,0.30
2022-12-12T16:32:47.511Z,0.30
2022-12-12T16:35:21.598Z,0.30
2022-12-12T16:37:48.761Z,0.20
2022-12-12T16:40:18.472Z,0.20
2022-12-12T16:43:03.677Z,0.20
2022-12-12T16:45:36.339Z,0.10
2022-12-12T16:48:18.095Z,0.10
2022-12-12T16:50:47.013Z,0.10
2022-12-12T16:53:17.110Z,0.00
2022-12-12T16:55:47.224Z,0.00
2022-12-12T16:58:14.457Z,0.00
2022-12-12T17:00:42.334Z,-0.10
2022-12-12T17:03:13.486Z,-0.10
2022-12-12T17:05:42.077Z,-0.10
2022-12-12T17:08:09.517Z,-0.20
2022-12-12T17:10:37.304Z,-0.10
2022-12-12T17:13:12.951Z,-0.10
2022-12-12T17:15:40.280Z,-0.10
2022-12-12T17:18:07.562Z,-0.10
2022-12-12T17:20:37.573Z,-0.10
2022-12-12T17:25:57.231Z,-0.20
2022-12-12T17:28:27.997Z,-0.20
2022-12-12T17:30:58.058Z,-0.30
2022-12-12T17:33:29.795Z,-0.30
2022-12-12T17:36:05.887Z,-0.30
2022-12-12T17:38:33.780Z,-0.30
2022-12-12T17:41:07.105Z,-0.40
2022-12-12T17:43:34.362Z,-0.40
2022-12-12T17:46:10.538Z,-0.50
2022-12-12T17:48:41.816Z,-0.60
2022-12-12T17:51:15.063Z,-0.70
2022-12-12T17:53:42.247Z,-0.70
2022-12-12T17:56:18.943Z,-0.90
2022-12-12T17:58:47.534Z,-0.90
2022-12-12T18:01:28.805Z,-1.00
2022-12-12T18:03:58.998Z,-1.10
2022-12-12T18:06:27.317Z,-1.10
2022-12-12T18:08:54.762Z,-1.10
2022-12-12T18:11:27.286Z,-1.20
2022-12-12T18:13:59.521Z,-1.30
2022-12-12T18:16:31.509Z,-1.30
2022-12-12T18:18:59.098Z,-1.40
2022-12-12T18:21:59.323Z,-1.50
2022-12-12T18:24:21.187Z,-1.60
2022-12-12T18:26:58.476Z,-1.60
2022-12-12T18:29:27.891Z,-1.60
2022-12-12T18:31:55.380Z,-1.70
2022-12-12T18:34:25.229Z,-1.70
2022-12-12T18:36:54.897Z,-1.70
2022-12-12T18:39:22.008Z,-1.60
2022-12-12T18:41:51.854Z,-1.60
2022-12-12T18:44:19.300Z,-1.50
2022-12-12T18:46:48.823Z,-1.50
2022-12-12T18:49:18.920Z,-1.50
2022-12-12T18:51:47.074Z,-1.50
2022-12-12T18:54:16.196Z,-1.50
2022-12-12T18:56:47.481Z,-1.50
2022-12-12T18:59:17.408Z,-1.40
2022-12-12T19:01:45.037Z,-1.40
2022-12-12T19:04:19.333Z,-1.30
2022-12-12T19:06:48.705Z,-1.30
2022-12-12T19:09:18.093Z,-1.20
2022-12-12T19:11:45.702Z,-1.20
2022-12-12T19:14:14.907Z,-1.10
2022-12-12T19:16:42.879Z,-1.10
2022-12-12T19:19:11.538Z,-1.10
2022-12-12T19:21:42.093Z,-1.10
2022-12-12T19:24:11.950Z,-1.10
2022-12-12T19:26:40.984Z,-1.10
2022-12-12T19:29:11.879Z,-1.10
2022-12-12T19:31:38.833Z,-1.10
2022-12-12T19:34:08.463Z,-1.10
2022-12-12T19:36:35.999Z,-1.10
2022-12-12T19:39:07.778Z,-1.00
2022-12-12T19:41:35.924Z,-1.10
2022-12-12T19:44:05.886Z,-1.00
2022-12-12T19:46:35.539Z,-1.00
2022-12-12T19:49:06.532Z,-1.00
2022-12-12T19:51:33.688Z,-1.00
2022-12-12T19:54:05.437Z,-1.10
2022-12-12T19:56:34.937Z,-1.00
2022-12-12T19:59:04.906Z,-1.00
2022-12-12T20:01:33.981Z,-1.00
2022-12-12T20:04:08.338Z,-1.00
2022-12-12T20:06:38.316Z,-1.00
2022-12-12T20:09:08.334Z,-1.00
2022-12-12T20:11:36.257Z,-1.00
2022-12-12T20:14:07.087Z,-1.00
2022-12-12T20:16:34.349Z,-1.00
2022-12-12T20:19:06.245Z,-0.90
2022-12-12T20:24:25.393Z,-1.00
2022-12-12T20:26:53.889Z,-1.00
2022-12-12T20:29:22.116Z,-1.00
2022-12-12T20:31:49.405Z,-1.10
2022-12-12T20:34:19.034Z,-1.10
2022-12-12T20:36:46.212Z,-1.10
2022-12-12T20:39:18.351Z,-1.00
2022-12-12T20:41:47.735Z,-1.00
2022-12-12T20:44:17.748Z,-1.00
2022-12-12T20:46:46.587Z,-1.00
2022-12-12T20:49:19.630Z,-1.00
2022-12-12T20:51:57.935Z,-1.00
2022-12-12T20:54:27.512Z,-1.00
2022-12-12T20:56:55.745Z,-1.00
2022-12-12T20:59:24.107Z,-1.10
2022-12-12T21:01:54.255Z,-1.20
2022-12-12T21:04:24.442Z,-1.10
2022-12-12T21:06:51.981Z,-1.20
2022-12-12T21:09:25.940Z,-1.30
2022-12-12T21:11:56.195Z,-1.30
2022-12-12T21:14:24.876Z,-1.40
2022-12-12T21:16:52.558Z,-1.40
2022-12-12T21:19:21.157Z,-1.40
2022-12-12T21:21:48.504Z,-1.50
2022-12-12T21:24:17.755Z,-1.50
2022-12-12T21:26:45.956Z,-1.50
2022-12-12T21:29:13.786Z,-1.60
2022-12-12T21:31:49.906Z,-1.60
2022-12-12T21:34:19.817Z,-1.60
2022-12-12T21:36:49.316Z,-1.60
2022-12-12T21:39:16.688Z,-1.70
2022-12-12T21:41:43.950Z,-1.70
2022-12-12T21:44:13.891Z,-1.80
2022-12-12T21:46:40.989Z,-1.80
2022-12-12T21:49:08.479Z,-1.80
2022-12-12T21:51:38.666Z,-1.80
2022-12-12T21:54:07.874Z,-1.90
2022-12-12T21:56:35.173Z,-2.00
2022-12-12T21:59:02.673Z,-2.10
2022-12-12T22:01:29.765Z,-2.10
2022-12-12T22:04:00.009Z,-2.10
2022-12-12T22:06:30.576Z,-2.20
2022-12-12T22:08:59.962Z,-2.20
2022-12-12T22:11:41.475Z,-2.20
2022-12-12T22:14:19.216Z,-2.30
2022-12-12T22:16:46.488Z,-2.30
2022-12-12T22:19:15.389Z,-2.40
2022-12-12T22:21:45.402Z,-2.50
2022-12-12T22:24:15.711Z,-2.50
2022-12-12T22:26:48.421Z,-2.60
2022-12-12T22:29:19.927Z,-2.60
2022-12-12T22:31:47.589Z,-2.70
2022-12-12T22:34:18.099Z,-2.60
2022-12-12T22:36:45.958Z,-2.60
2022-12-12T22:39:18.654Z,-2.60
2022-12-12T22:41:46.246Z,-2.60
2022-12-12T22:44:18.800Z,-2.60
2022-12-12T22:46:49.890Z,-2.70
2022-12-12T22:49:20.748Z,-2.70
2022-12-12T22:51:48.580Z,-2.80
2022-12-12T22:54:16.076Z,-2.80
2022-12-12T22:56:43.254Z,-2.80
2022-12-12T22:59:14.566Z,-2.90
2022-12-12T23:01:42.280Z,-2.90
2022-12-12T23:04:12.552Z,-2.90
2022-12-12T23:06:39.787Z,-2.80
2022-12-12T23:09:12.495Z,-2.80
2022-12-12T23:11:39.978Z,-2.80
2022-12-12T23:14:10.829Z,-2.70
2022-12-12T23:16:37.928Z,-2.70
2022-12-12T23:19:08.515Z,-2.60
2022-12-12T23:21:38.117Z,-2.60
2022-12-12T23:24:06.912Z,-2.50
2022-12-12T23:26:35.696Z,-2.40
2022-12-12T23:29:04.959Z,-2.40
2022-12-12T23:31:34.314Z,-2.40
2022-12-12T23:34:08.536Z,-2.30
2022-12-12T23:36:35.868Z,-2.30
2022-12-12T23:39:06.698Z,-2.20
2022-12-12T23:41:34.467Z,-2.20
2022-12-12T23:44:02.228Z,-2.20
2022-12-12T23:46:29.774Z,-2.10
2022-12-12T23:48:59.165Z,-2.10
2022-12-12T23:51:27.866Z,-2.10
2022-12-12T23:53:56.928Z,-2.10
2022-12-12T23:56:24.486Z,-2.10
2022-12-12T23:58:55.740Z,-2.10
